createdAt,value
2019-06-08T00:04:22.911Z,61.18
2019-06-08T00:09:27.227Z,62.14
2019-06-08T00:14:31.463Z,62.88
2019-06-08T00:19:35.668Z,63.64
2019-06-08T00:24:39.860Z,62.99
2019-06-08T00:29:44.062Z,64.12
2019-06-08T00:34:48.258Z,64.56
2019-06-08T00:39:52.460Z,64.25
2019-06-08T00:44:56.692Z,64.92
2019-06-08T00:50:00.850Z,65.36
2019-06-08T00:55:05.214Z,66.27
2019-06-08T01:00:11.646Z,66.91
2019-06-08T01:05:15.910Z,67.77
2019-06-08T01:10:21.315Z,68.37
2019-06-08T01:15:31.098Z,68.72
2019-06-08T01:20:31.783Z,68.92
2019-06-08T01:25:36.086Z,69.53
2019-06-08T01:30:40.404Z,70.02
2019-06-08T01:35:44.594Z,70.19
2019-06-08T01:40:48.805Z,69.98
2019-06-08T01:45:53.000Z,69.93
2019-06-08T01:50:57.202Z,70.48
2019-06-08T01:56:01.410Z,71.03
2019-06-08T02:01:05.866Z,72.15
2019-06-08T02:06:10.104Z,70.42
2019-06-08T02:11:14.306Z,68.90
2019-06-08T02:16:18.548Z,69.31
2019-06-08T02:21:22.726Z,67.85
2019-06-08T02:26:28.681Z,68.07
2019-06-08T02:31:34.828Z,67.18
2019-06-08T02:36:38.841Z,67.81
2019-06-08T02:41:43.045Z,68.80
2019-06-08T02:46:47.276Z,68.54
2019-06-08T02:51:51.689Z,68.64
2019-06-08T02:56:56.187Z,67.85
2019-06-08T03:02:02.289Z,66.59
2019-06-08T03:07:06.893Z,66.15
2019-06-08T03:12:11.105Z,65.68
2019-06-08T03:17:15.344Z,66.08
2019-06-08T03:22:19.549Z,65.64
2019-06-08T03:27:23.752Z,65.86
2019-06-08T03:32:27.973Z,66.44
2019-06-08T03:37:33.315Z,65.59
2019-06-08T03:42:37.575Z,65.07
2019-06-08T03:47:43.499Z,64.44
2019-06-08T03:52:47.715Z,63.43
2019-06-08T03:57:51.918Z,64.44
2019-06-08T04:02:56.115Z,66.14
2019-06-08T04:08:00.318Z,73.47
2019-06-08T04:13:05.159Z,69.85
2019-06-08T04:18:09.347Z,68.64
2019-06-08T04:23:13.552Z,69.23
2019-06-08T04:28:17.745Z,68.07
2019-06-08T04:33:22.247Z,67.38
2019-06-08T04:38:26.450Z,65.94
2019-06-08T04:43:30.654Z,66.09
2019-06-08T04:48:34.848Z,67.70
2019-06-08T04:53:40.719Z,67.10
2019-06-08T04:58:47.821Z,64.88
2019-06-08T05:03:51.061Z,66.42
2019-06-08T05:08:55.370Z,65.50
2019-06-08T05:13:59.617Z,64.12
2019-06-08T05:19:03.844Z,63.68
2019-06-08T05:24:08.141Z,63.26
2019-06-08T05:29:12.604Z,61.93
2019-06-08T05:34:16.812Z,61.69
2019-06-08T05:39:21.010Z,61.98
2019-06-08T05:44:26.407Z,61.77
2019-06-08T05:49:30.609Z,61.04
2019-06-08T05:54:35.129Z,60.04
2019-06-08T05:59:40.061Z,59.15
2019-06-08T06:04:44.480Z,58.25
2019-06-08T06:09:48.875Z,58.24
2019-06-08T06:14:53.120Z,58.04
2019-06-08T06:19:57.331Z,57.22
2019-06-08T06:25:01.552Z,56.20
2019-06-08T06:30:06.323Z,54.50
2019-06-08T06:35:10.845Z,53.20
2019-06-08T06:40:15.756Z,52.18
2019-06-08T06:45:19.965Z,52.18
2019-06-08T06:50:24.175Z,52.02
2019-06-08T06:55:30.492Z,50.97
2019-06-08T07:00:34.903Z,49.27
2019-06-08T07:05:39.087Z,46.74
2019-06-08T07:10:44.512Z,46.74
2019-06-08T07:15:51.540Z,44.61
2019-06-08T07:20:54.825Z,45.31
2019-06-08T07:25:59.009Z,46.07
2019-06-08T07:31:03.243Z,45.97
2019-06-08T07:36:08.897Z,47.47
2019-06-08T07:41:13.103Z,47.46
2019-06-08T07:46:17.285Z,46.96
2019-06-08T07:51:21.534Z,46.26
2019-06-08T07:56:25.739Z,46.90
2019-06-08T08:01:36.126Z,46.90
2019-06-08T08:06:36.012Z,48.06
2019-06-08T08:11:40.223Z,48.19
2019-06-08T08:16:44.477Z,47.13
2019-06-08T08:21:51.839Z,47.13
2019-06-08T08:26:56.986Z,47.49
2019-06-08T08:32:02.068Z,48.32
2019-06-08T08:37:09.495Z,47.70
2019-06-08T08:42:12.777Z,48.02
2019-06-08T08:47:18.695Z,48.07
2019-06-08T08:52:34.513Z,47.23
2019-06-08T08:57:29.030Z,47.96
2019-06-08T09:02:33.267Z,48.15
2019-06-08T09:07:38.477Z,48.13
2019-06-08T09:12:42.971Z,48.30
2019-06-08T09:17:48.288Z,47.18
2019-06-08T09:23:01.682Z,47.41
2019-06-08T09:28:01.268Z,47.57
2019-06-08T09:33:04.595Z,48.12
2019-06-08T09:38:11.023Z,47.48
2019-06-08T09:43:14.731Z,47.32
2019-06-08T09:48:18.983Z,46.00
2019-06-08T09:53:31.975Z,45.22
2019-06-08T09:58:29.188Z,45.13
2019-06-08T10:03:34.317Z,46.21
2019-06-08T10:08:38.899Z,45.37
2019-06-08T10:13:43.646Z,46.35
2019-06-08T10:18:51.057Z,46.37
2019-06-08T10:23:58.272Z,45.74
2019-06-08T10:29:04.139Z,46.45
2019-06-08T10:34:10.891Z,46.41
2019-06-08T10:39:13.784Z,46.41
2019-06-08T10:44:18.361Z,46.61
2019-06-08T10:49:22.674Z,46.31
2019-06-08T10:54:27.752Z,45.90
2019-06-08T10:59:32.008Z,44.30
2019-06-08T11:04:38.655Z,42.98
2019-06-08T11:09:42.101Z,42.98
2019-06-08T11:14:48.148Z,40.18
2019-06-08T11:19:53.311Z,38.43
2019-06-08T11:25:00.794Z,38.03
2019-06-08T11:30:14.207Z,38.79
2019-06-08T11:35:12.595Z,39.00
2019-06-08T11:40:20.291Z,38.83
2019-06-08T11:45:22.886Z,37.76
2019-06-08T11:50:42.280Z,36.19
2019-06-08T11:55:50.734Z,34.78
2019-06-08T12:01:03.759Z,31.09
2019-06-08T12:06:09.482Z,29.50
2019-06-08T12:11:18.114Z,30.41
2019-06-08T12:16:22.349Z,31.82
2019-06-08T12:21:27.377Z,32.79
2019-06-08T12:26:31.697Z,31.31
2019-06-08T12:31:37.824Z,30.90
2019-06-08T12:36:42.433Z,30.09
2019-06-08T12:41:47.879Z,28.97
2019-06-08T12:46:52.118Z,27.81
2019-06-08T12:51:58.657Z,26.07
2019-06-08T12:57:02.851Z,27.59
2019-06-08T13:02:08.743Z,27.22
2019-06-08T13:07:13.203Z,26.07
2019-06-08T13:12:19.925Z,24.01
2019-06-08T13:17:23.486Z,24.40
2019-06-08T13:22:30.842Z,25.02
2019-06-08T13:27:33.600Z,25.97
2019-06-08T13:32:38.299Z,25.01
2019-06-08T13:37:43.753Z,24.24
2019-06-08T13:42:51.131Z,24.69
2019-06-08T13:47:53.864Z,25.02
2019-06-08T13:52:58.765Z,23.22
2019-06-08T13:58:03.040Z,22.36
2019-06-08T14:03:08.840Z,23.15
2019-06-08T14:08:14.435Z,22.54
2019-06-08T14:13:21.514Z,22.98
2019-06-08T14:18:31.642Z,22.26
2019-06-08T14:23:32.030Z,21.68
2019-06-08T14:28:38.067Z,23.21
2019-06-08T14:33:42.343Z,22.55
2019-06-08T14:38:49.111Z,20.42
2019-06-08T14:43:52.476Z,21.22
2019-06-08T14:48:58.534Z,21.47
2019-06-08T14:54:02.889Z,23.68
2019-06-08T14:59:08.184Z,22.62
2019-06-08T15:04:12.492Z,22.27
2019-06-08T15:09:17.812Z,22.41
2019-06-08T15:14:23.555Z,22.16
2019-06-08T15:19:30.385Z,21.67
2019-06-08T15:24:34.338Z,22.08
2019-06-08T15:29:38.577Z,22.08
2019-06-08T15:34:42.757Z,22.12
2019-06-08T15:39:48.636Z,23.63
2019-06-08T15:44:52.890Z,23.48
2019-06-08T15:49:58.788Z,24.30
2019-06-08T15:55:03.063Z,23.51
2019-06-08T16:00:10.194Z,22.78
2019-06-08T16:05:14.192Z,22.60
2019-06-08T16:10:18.406Z,21.12
2019-06-08T16:15:22.597Z,22.45
2019-06-08T16:20:27.544Z,23.17
2019-06-08T16:25:35.205Z,24.98
2019-06-08T16:30:37.742Z,23.93
2019-06-08T16:35:41.964Z,22.71
2019-06-08T16:40:46.229Z,21.68
2019-06-08T16:45:50.374Z,22.56
2019-06-08T16:50:54.565Z,22.78
2019-06-08T16:56:01.689Z,24.46
2019-06-08T17:01:07.281Z,25.61
2019-06-08T17:06:11.486Z,26.47
2019-06-08T17:11:15.695Z,27.06
2019-06-08T17:16:19.923Z,26.94
2019-06-08T17:21:24.132Z,27.57
2019-06-08T17:26:28.625Z,27.85
2019-06-08T17:31:33.031Z,27.76
2019-06-08T17:36:38.534Z,27.95
2019-06-08T17:41:42.849Z,28.43
2019-06-08T17:46:48.271Z,29.02
2019-06-08T17:51:52.462Z,29.47
2019-06-08T17:56:56.651Z,29.40
2019-06-08T18:02:00.856Z,29.78
2019-06-08T18:07:07.041Z,29.58
2019-06-08T18:12:12.780Z,29.79
2019-06-08T18:17:18.432Z,29.72
2019-06-08T18:22:22.795Z,30.32
2019-06-08T18:27:27.850Z,30.19
2019-06-08T18:32:32.130Z,30.27
2019-06-08T18:37:40.656Z,30.78
2019-06-08T18:42:48.780Z,30.61
2019-06-08T18:47:53.301Z,30.68
2019-06-08T18:52:57.980Z,30.82
2019-06-08T18:58:16.411Z,31.21
2019-06-08T19:03:10.276Z,31.59
2019-06-08T19:08:17.988Z,31.59
2019-06-08T19:13:22.287Z,31.64
2019-06-08T19:18:26.928Z,32.42
2019-06-08T19:23:32.478Z,32.43
2019-06-08T19:28:40.920Z,32.48
2019-06-08T19:33:43.659Z,32.82
2019-06-08T19:38:53.393Z,33.59
2019-06-08T19:43:54.842Z,33.58
2019-06-08T19:48:59.262Z,33.62
2019-06-08T19:54:03.503Z,33.81
2019-06-08T19:59:08.453Z,33.88
2019-06-08T20:04:12.799Z,34.08
2019-06-08T20:09:17.456Z,34.28
2019-06-08T20:14:21.819Z,34.44
2019-06-08T20:19:27.922Z,34.87
2019-06-08T20:24:31.962Z,34.87
2019-06-08T20:29:38.139Z,35.17
2019-06-08T20:34:42.429Z,35.02
2019-06-08T20:40:04.471Z,35.11
2019-06-08T20:44:54.098Z,35.26
2019-06-08T20:49:58.465Z,35.26
2019-06-08T20:55:02.682Z,35.45
2019-06-08T21:00:11.058Z,35.55
2019-06-08T21:05:14.044Z,35.55
2019-06-08T21:10:18.292Z,35.68
2019-06-08T21:15:22.573Z,36.21
2019-06-08T21:20:28.252Z,36.27
2019-06-08T21:25:32.589Z,36.63
2019-06-08T21:30:37.723Z,36.88
2019-06-08T21:35:42.227Z,37.00
2019-06-08T21:40:50.483Z,36.95
2019-06-08T21:45:53.630Z,37.00
2019-06-08T21:51:01.449Z,37.17
2019-06-08T21:56:04.829Z,37.80
2019-06-08T22:01:09.739Z,38.07
2019-06-08T22:06:13.949Z,38.33
2019-06-08T22:11:18.191Z,38.48
2019-06-08T22:16:22.409Z,38.71
2019-06-08T22:21:27.991Z,38.77
2019-06-08T22:26:32.302Z,38.63
2019-06-08T22:31:37.581Z,39.10
2019-06-08T22:36:41.948Z,39.44
2019-06-08T22:41:47.811Z,39.44
2019-06-08T22:46:53.868Z,39.63
2019-06-08T22:52:00.864Z,39.50
2019-06-08T22:57:04.828Z,39.95
2019-06-08T23:02:09.315Z,39.83
2019-06-08T23:07:25.724Z,40.65
2019-06-08T23:12:19.542Z,40.58
2019-06-08T23:17:23.732Z,40.59
2019-06-08T23:22:27.949Z,40.65
2019-06-08T23:27:32.192Z,41.10
2019-06-08T23:32:38.550Z,40.72
2019-06-08T23:37:44.450Z,41.30
2019-06-08T23:42:48.680Z,41.46
2019-06-08T23:47:52.891Z,41.87
2019-06-08T23:52:59.019Z,41.76
2019-06-08T23:58:03.030Z,42.11
